Time;durP1;ratioP1;P1;durP2;ratioP2;P2;SDS_P1;SDS_P2;PMS_P1;PMS_P2;Temp;Humidity;BMP_temperature;BMP_pressure;BME280_temperature;BME280_humidity;BME280_pressure;Samples;Min_cycle;Max_cycle;Signal;HPM_P1;HPM_P2
2021/11/04 00:00:09;;;;;;;49.00;43.20;;;;;21.10;99162.00;;;;2078197;28;20522;-56
2021/11/04 00:01:09;;;;;;;48.50;42.17;;;;;21.10;99167.00;;;;2077108;28;20213;-55
2021/11/04 00:02:09;;;;;;;45.17;40.10;;;;;21.10;99162.00;;;;2070371;28;20210;-56
2021/11/04 00:03:10;;;;;;;48.03;42.90;;;;;21.10;99158.00;;;;2070340;28;20214;-56
2021/11/04 00:04:10;;;;;;;44.40;39.60;;;;;21.10;99162.00;;;;2070554;28;20214;-56
2021/11/04 00:05:10;;;;;;;45.33;40.43;;;;;21.10;99158.00;;;;2070241;28;20701;-55
2021/11/04 00:06:11;;;;;;;44.33;39.57;;;;;21.10;99167.00;;;;2070550;28;20622;-55
2021/11/04 00:07:13;;;;;;;45.00;38.30;;;;;21.00;99163.00;;;;2071827;28;20563;-55
2021/11/04 00:08:13;;;;;;;45.05;40.22;;;;;21.10;99166.00;;;;2071680;28;20214;-55
2021/11/04 00:09:13;;;;;;;45.00;39.70;;;;;21.00;99166.00;;;;2070590;28;20222;-54
2021/11/04 00:10:14;;;;;;;42.13;37.70;;;;;21.00;99157.00;;;;2071801;28;20638;-56
2021/11/04 00:11:14;;;;;;;42.47;37.87;;;;;21.10;99165.00;;;;2072116;28;20210;-56
2021/11/04 00:12:14;;;;;;;41.57;36.03;;;;;21.00;99157.00;;;;2074132;28;20210;-58
2021/11/04 00:13:15;;;;;;;42.50;37.87;;;;;21.10;99153.00;;;;2080085;28;20216;-57
2021/11/04 00:14:15;;;;;;;41.63;37.13;;;;;21.00;99162.00;;;;2079753;28;20296;-56
2021/11/04 00:15:15;;;;;;;40.80;36.33;;;;;21.00;99157.00;;;;2080009;28;20694;-56
2021/11/04 00:16:16;;;;;;;41.43;36.93;;;;;21.00;99157.00;;;;2073992;28;20733;-57
2021/11/04 00:17:17;;;;;;;40.60;36.40;;;;;21.00;99151.00;;;;2073213;28;20214;-57
2021/11/04 00:18:17;;;;;;;40.63;36.33;;;;;21.00;99158.00;;;;2072427;28;20294;-54
2021/11/04 00:19:17;;;;;;;38.40;34.40;;;;;21.00;99163.00;;;;2070281;28;20543;-56
2021/11/04 00:20:18;;;;;;;40.40;34.70;;;;;21.00;99158.00;;;;2071906;28;20214;-54
2021/11/04 00:21:18;;;;;;;39.90;35.63;;;;;21.00;99157.00;;;;2072014;28;20667;-55
2021/11/04 00:22:19;;;;;;;38.07;34.20;;;;;21.10;99152.00;;;;2078849;28;20209;-56
2021/11/04 00:23:19;;;;;;;39.80;35.43;;;;;21.10;99162.00;;;;2079996;28;20213;-55
2021/11/04 00:24:19;;;;;;;37.60;33.53;;;;;21.10;99156.00;;;;2079997;28;20209;-55
2021/11/04 00:25:20;;;;;;;37.50;33.60;;;;;21.10;99151.00;;;;2079889;28;20892;-54
2021/11/04 00:26:20;;;;;;;37.23;33.27;;;;;21.10;99151.00;;;;2080110;28;20205;-54
2021/11/04 00:27:20;;;;;;;35.63;31.93;;;;;21.00;99153.00;;;;2079888;28;20213;-55
2021/11/04 00:28:21;;;;;;;36.17;32.30;;;;;21.10;99154.00;;;;2074133;28;20211;-55
2021/11/04 00:29:21;;;;;;;36.37;32.43;;;;;21.00;99154.00;;;;2070658;28;20210;-56
2021/11/04 00:30:21;;;;;;;36.43;32.53;;;;;21.00;99165.00;;;;2075468;28;20834;-55
2021/11/04 00:31:23;;;;;;;35.27;31.67;;;;;21.00;99157.00;;;;2073928;28;20218;-55
2021/11/04 00:32:23;;;;;;;34.58;30.95;;;;;21.00;99162.00;;;;2079311;28;20213;-55
2021/11/04 00:33:24;;;;;;;35.43;31.80;;;;;21.00;99161.00;;;;2071534;28;20218;-54
2021/11/04 00:34:24;;;;;;;34.80;31.30;;;;;21.00;99166.00;;;;2077814;28;20309;-54
2021/11/04 00:35:24;;;;;;;33.27;29.93;;;;;21.00;99175.00;;;;2071885;28;20214;-55
2021/11/04 00:36:25;;;;;;;35.37;31.57;;;;;21.00;99170.00;;;;2070891;28;20226;-56
2021/11/04 00:37:25;;;;;;;33.60;30.00;;;;;21.00;99165.00;;;;2071781;28;20227;-56
2021/11/04 00:38:25;;;;;;;33.90;30.50;;;;;21.00;99162.00;;;;2078233;28;20217;-56
2021/11/04 00:39:26;;;;;;;36.03;32.23;;;;;21.00;99158.00;;;;2078835;28;20222;-54
2021/11/04 00:40:26;;;;;;;33.30;29.90;;;;;21.00;99157.00;;;;2072814;28;20285;-56
2021/11/04 00:41:26;;;;;;;31.50;28.30;;;;;21.00;99161.00;;;;2079445;28;20301;-54
2021/11/04 00:42:27;;;;;;;32.40;29.03;;;;;21.00;99156.00;;;;2075893;28;20218;-55
2021/11/04 00:43:27;;;;;;;32.50;29.20;;;;;21.00;99151.00;;;;2075262;28;20206;-55
2021/11/04 00:44:27;;;;;;;33.17;29.80;;;;;21.00;99147.00;;;;2071691;28;20293;-54
2021/11/04 00:45:28;;;;;;;31.43;28.20;;;;;21.00;99151.00;;;;2071839;28;20214;-54
2021/11/04 00:46:30;;;;;;;32.60;29.30;;;;;21.00;99144.00;;;;2073634;28;20233;-56
2021/11/04 00:47:30;;;;;;;32.45;29.05;;;;;21.00;99151.00;;;;2075613;28;20236;-56
2021/11/04 00:48:30;;;;;;;31.37;28.10;;;;;21.00;99156.00;;;;2072368;28;20218;-54
2021/11/04 00:49:31;;;;;;;31.40;28.10;;;;;20.90;99156.00;;;;2078339;28;20631;-56
2021/11/04 00:50:31;;;;;;;31.40;27.90;;;;;21.00;99154.00;;;;2072002;28;20800;-56
2021/11/04 00:51:31;;;;;;;30.63;27.50;;;;;21.00;99158.00;;;;2076229;28;20623;-56
2021/11/04 00:52:32;;;;;;;29.50;26.40;;;;;21.00;99155.00;;;;2079823;28;20651;-55
2021/11/04 00:53:32;;;;;;;31.23;27.93;;;;;21.00;99155.00;;;;2074653;28;20547;-55
2021/11/04 00:54:32;;;;;;;29.80;26.80;;;;;20.90;99162.00;;;;2073712;28;20717;-55
2021/11/04 00:55:33;;;;;;;29.83;26.83;;;;;21.00;99150.00;;;;2079853;28;20221;-55
2021/11/04 00:56:33;;;;;;;31.53;28.23;;;;;20.90;99154.00;;;;2079751;28;20249;-56
2021/11/04 00:57:33;;;;;;;30.10;26.90;;;;;21.00;99154.00;;;;2079287;28;20210;-56
2021/11/04 00:58:34;;;;;;;30.50;27.33;;;;;21.00;99151.00;;;;2079443;28;20259;-55
2021/11/04 00:59:34;;;;;;;30.27;27.13;;;;;21.00;99145.00;;;;2078074;28;20573;-55
2021/11/04 01:00:35;;;;;;;29.50;26.30;;;;;20.90;99155.00;;;;2079868;28;20221;-55
2021/11/04 01:01:35;;;;;;;32.10;28.70;;;;;20.90;99156.00;;;;2079087;28;20210;-54
2021/11/04 01:02:35;;;;;;;30.20;27.20;;;;;20.90;99157.00;;;;2079620;28;20672;-56
2021/11/04 01:03:36;;;;;;;28.40;25.40;;;;;20.90;99156.00;;;;2079793;28;20629;-56
2021/11/04 01:04:36;;;;;;;31.33;27.00;;;;;21.00;99159.00;;;;2079915;28;20593;-54
2021/11/04 01:05:37;;;;;;;31.20;26.70;;;;;21.00;99162.00;;;;2079717;28;20213;-57
2021/11/04 01:06:37;;;;;;;29.13;26.03;;;;;21.00;99159.00;;;;2072194;28;20245;-56
2021/11/04 01:07:37;;;;;;;29.10;26.17;;;;;20.90;99163.00;;;;2071614;28;20293;-55
2021/11/04 01:08:38;;;;;;;29.90;26.90;;;;;20.90;99166.00;;;;2071137;28;20236;-57
2021/11/04 01:09:38;;;;;;;27.80;24.90;;;;;20.90;99164.00;;;;2070380;28;20225;-55
2021/11/04 01:10:39;;;;;;;28.43;25.43;;;;;20.90;99163.00;;;;2071619;28;20300;-55
2021/11/04 01:11:39;;;;;;;28.13;25.30;;;;;20.90;99167.00;;;;2071473;28;20214;-56
2021/11/04 01:12:39;;;;;;;28.57;25.67;;;;;20.90;99172.00;;;;2073632;28;20218;-55
2021/11/04 01:13:39;;;;;;;27.63;24.63;;;;;20.90;99171.00;;;;2079598;28;20213;-54
2021/11/04 01:14:40;;;;;;;28.37;25.47;;;;;20.90;99165.00;;;;2079517;28;20312;-55
2021/11/04 01:15:40;;;;;;;26.80;24.07;;;;;20.90;99165.00;;;;2079756;28;20214;-55
2021/11/04 01:16:41;;;;;;;27.47;24.67;;;;;20.90;99164.00;;;;2072210;28;20221;-55
2021/11/04 01:17:41;;;;;;;27.57;24.47;;;;;20.90;99161.00;;;;2071259;28;20210;-55
2021/11/04 01:18:41;;;;;;;27.27;24.30;;;;;20.90;99150.00;;;;2069978;28;20706;-54
2021/11/04 01:19:42;;;;;;;27.07;24.27;;;;;20.90;99157.00;;;;2070209;28;20214;-55
2021/11/04 01:20:42;;;;;;;27.80;24.53;;;;;20.90;99146.00;;;;2072850;28;20214;-56
2021/11/04 01:21:42;;;;;;;27.23;24.37;;;;;20.90;99145.00;;;;2079666;28;20213;-56
2021/11/04 01:22:43;;;;;;;27.47;24.50;;;;;20.90;99140.00;;;;2079596;28;20679;-55
2021/11/04 01:23:43;;;;;;;28.73;25.73;;;;;20.90;99141.00;;;;2079700;28;20657;-56
2021/11/04 01:24:43;;;;;;;26.50;23.80;;;;;21.00;99137.00;;;;2079586;28;20227;-56
2021/11/04 01:25:44;;;;;;;26.87;24.07;;;;;20.90;99138.00;;;;2079621;28;20224;-56
2021/11/04 01:26:44;;;;;;;26.53;23.87;;;;;20.90;99145.00;;;;2079406;28;20221;-56
2021/11/04 01:27:44;;;;;;;27.43;24.60;;;;;20.90;99145.00;;;;2079629;28;20571;-55
2021/11/04 01:28:45;;;;;;;27.40;24.60;;;;;20.90;99149.00;;;;2073188;28;20229;-56
2021/11/04 01:29:46;;;;;;;25.53;22.93;;;;;20.90;99148.00;;;;2070563;28;20222;-56
2021/11/04 01:30:46;;;;;;;26.87;24.23;;;;;20.90;99145.00;;;;2077576;28;20224;-55
2021/11/04 01:31:46;;;;;;;26.00;23.50;;;;;20.90;99140.00;;;;2079509;28;20218;-56
2021/11/04 01:32:47;;;;;;;25.60;23.10;;;;;20.90;99146.00;;;;2079653;28;20217;-56
2021/11/04 01:33:47;;;;;;;26.53;23.73;;;;;20.90;99150.00;;;;2079720;28;20236;-56
2021/11/04 01:34:47;;;;;;;26.63;23.93;;;;;20.90;99145.00;;;;2071594;28;20662;-55
2021/11/04 01:35:48;;;;;;;26.30;23.60;;;;;20.90;99153.00;;;;2072100;28;20305;-55
2021/11/04 01:36:48;;;;;;;25.70;23.03;;;;;20.90;99146.00;;;;2079496;28;20225;-55
2021/11/04 01:37:49;;;;;;;26.43;23.77;;;;;20.90;99145.00;;;;2079279;28;20567;-56
2021/11/04 01:38:49;;;;;;;25.47;22.70;;;;;20.90;99144.00;;;;2072089;28;20214;-55
2021/11/04 01:39:50;;;;;;;26.00;23.30;;;;;20.90;99144.00;;;;2071522;28;20206;-55
2021/11/04 01:40:50;;;;;;;26.10;23.40;;;;;20.90;99144.00;;;;2071302;28;20225;-54
2021/11/04 01:41:52;;;;;;;27.57;24.63;;;;;20.80;99147.00;;;;2071379;28;20211;-56
2021/11/04 01:42:52;;;;;;;25.98;23.27;;;;;20.80;99144.00;;;;2079139;28;20209;-56
2021/11/04 01:43:53;;;;;;;25.40;22.70;;;;;20.80;99143.00;;;;2071292;28;20233;-56
2021/11/04 01:44:53;;;;;;;26.73;23.90;;;;;20.90;99142.00;;;;2071184;28;20210;-55
2021/11/04 01:45:53;;;;;;;25.87;23.23;;;;;20.90;99140.00;;;;2072867;28;20198;-55
2021/11/04 01:46:54;;;;;;;26.13;23.60;;;;;20.90;99149.00;;;;2072113;28;20210;-54
2021/11/04 01:47:54;;;;;;;25.73;23.17;;;;;20.80;99147.00;;;;2071016;28;20897;-54
2021/11/04 01:48:54;;;;;;;26.03;23.43;;;;;20.80;99151.00;;;;2076062;28;20604;-55
2021/11/04 01:49:55;;;;;;;26.23;23.50;;;;;20.90;99156.00;;;;2075292;28;20214;-55
2021/11/04 01:50:55;;;;;;;25.87;23.20;;;;;20.90;99144.00;;;;2070722;28;20222;-56
2021/11/04 01:51:55;;;;;;;24.67;22.17;;;;;20.90;99157.00;;;;2074577;28;20221;-56
2021/11/04 01:52:56;;;;;;;24.40;22.00;;;;;20.80;99145.00;;;;2078876;28;20224;-55
2021/11/04 01:53:56;;;;;;;26.37;23.67;;;;;20.80;99156.00;;;;2078949;28;20241;-55
2021/11/04 01:54:57;;;;;;;24.67;22.30;;;;;20.80;99149.00;;;;2078931;28;20217;-55
2021/11/04 01:55:57;;;;;;;25.03;22.43;;;;;20.80;99153.00;;;;2079523;28;20217;-56
2021/11/04 01:56:57;;;;;;;25.20;22.60;;;;;20.80;99147.00;;;;2078355;28;20218;-55
2021/11/04 01:57:58;;;;;;;23.90;21.50;;;;;20.80;99152.00;;;;2079408;28;20220;-55
2021/11/04 01:58:58;;;;;;;25.20;22.70;;;;;20.80;99156.00;;;;2074654;28;20353;-54
2021/11/04 01:59:59;;;;;;;25.53;23.03;;;;;20.80;99151.00;;;;2070734;28;20661;-55
2021/11/04 02:00:59;;;;;;;23.10;20.80;;;;;20.80;99159.00;;;;2078894;28;20577;-56
2021/11/04 02:02:15;;;;;;;25.10;22.50;;;;;20.80;99156.00;;;;2070759;28;20261;-58
2021/11/04 02:03:18;;;;;;;24.00;21.63;;;;;20.80;99156.00;;;;2070593;28;20284;-56
2021/11/04 02:04:21;;;;;;;25.63;23.05;;;;;20.80;99147.00;;;;2070619;28;20293;-55
2021/11/04 02:05:26;;;;;;;24.15;21.75;;;;;20.80;99154.00;;;;2078581;28;20789;-55
2021/11/04 02:06:28;;;;;;;25.70;22.92;;;;;20.80;99164.00;;;;2065149;28;20307;-56
2021/11/04 02:07:33;;;;;;;25.52;23.00;;;;;20.80;99155.00;;;;2062351;28;20342;-56
2021/11/04 02:08:48;;;;;;;25.75;23.05;;;;;20.80;99157.00;;;;2069746;28;20222;-54
2021/11/04 02:10:15;;;;;;;25.88;23.23;;;;;20.80;99158.00;;;;2069903;28;20255;-54
2021/11/04 02:11:17;;;;;;;24.52;22.02;;;;;20.80;99160.00;;;;2061163;28;20845;-56
2021/11/04 02:12:22;;;;;;;25.33;22.83;;;;;20.80;99154.00;;;;2064918;28;20289;-56
2021/11/04 02:13:34;;;;;;;25.15;21.95;;;;;20.80;99158.00;;;;2074453;28;20963;-56
2021/11/04 02:14:45;;;;;;;27.48;24.67;;;;;20.80;99162.00;;;;2069003;28;20612;-55
2021/11/04 02:15:46;;;;;;;24.20;21.83;;;;;20.80;99158.00;;;;2071927;28;20229;-56
2021/11/04 02:16:46;;;;;;;24.77;22.37;;;;;20.80;99163.00;;;;2071540;28;20219;-56
2021/11/04 02:17:48;;;;;;;25.17;22.60;;;;;20.80;99164.00;;;;2070723;28;20229;-55
2021/11/04 02:18:48;;;;;;;25.58;22.90;;;;;20.80;99164.00;;;;2060446;28;20227;-56
2021/11/04 02:19:49;;;;;;;25.40;22.80;;;;;20.80;99166.00;;;;2061655;28;20313;-56
2021/11/04 02:21:11;;;;;;;24.52;21.92;;;;;20.80;99163.00;;;;2069764;28;20301;-55
2021/11/04 02:22:26;;;;;;;26.13;23.42;;;;;20.80;99167.00;;;;2067455;28;20592;-55
2021/11/04 02:23:49;;;;;;;24.42;21.92;;;;;20.80;99157.00;;;;2072480;28;20717;-56
2021/11/04 02:25:19;;;;;;;24.40;21.85;;;;;20.80;99154.00;;;;2069424;28;20214;-55
2021/11/04 02:26:20;;;;;;;25.67;22.98;;;;;20.80;99155.00;;;;2076438;28;20591;-54
2021/11/04 02:27:20;;;;;;;25.60;23.00;;;;;20.80;99150.00;;;;2075752;28;20228;-54
2021/11/04 02:28:20;;;;;;;25.00;22.30;;;;;20.70;99147.00;;;;2067340;28;20222;-56
2021/11/04 02:29:21;;;;;;;25.20;22.60;;;;;20.80;99146.00;;;;2076271;28;20236;-56
2021/11/04 02:30:22;;;;;;;25.63;23.13;;;;;20.80;99149.00;;;;2077837;28;20308;-54
2021/11/04 02:31:24;;;;;;;25.08;22.67;;;;;20.80;99147.00;;;;2078559;28;20702;-55
2021/11/04 02:32:24;;;;;;;25.05;22.42;;;;;20.80;99138.00;;;;2070382;28;20222;-54
2021/11/04 02:33:24;;;;;;;25.80;23.20;;;;;20.80;99152.00;;;;2069040;28;20297;-54
2021/11/04 02:34:25;;;;;;;23.90;21.40;;;;;20.80;99146.00;;;;2061005;28;20365;-56
2021/11/04 02:35:25;;;;;;;26.20;23.40;;;;;20.80;99147.00;;;;2074957;28;20552;-56
2021/11/04 02:36:25;;;;;;;24.53;21.90;;;;;20.80;99132.00;;;;2067332;28;20218;-56
2021/11/04 02:37:27;;;;;;;25.70;23.00;;;;;20.80;99137.00;;;;2059826;28;20674;-55
2021/11/04 02:38:30;;;;;;;25.30;22.70;;;;;20.80;99145.00;;;;2069125;28;20224;-55
2021/11/04 02:39:30;;;;;;;25.77;23.17;;;;;20.80;99137.00;;;;2076726;28;20840;-56
2021/11/04 02:40:31;;;;;;;25.13;22.57;;;;;20.80;99133.00;;;;2078151;28;20213;-55
2021/11/04 02:41:32;;;;;;;25.60;23.00;;;;;20.70;99146.00;;;;2068970;28;20906;-54
2021/11/04 02:42:32;;;;;;;25.27;22.63;;;;;20.80;99148.00;;;;2070078;28;20654;-54
2021/11/04 02:43:33;;;;;;;25.07;22.43;;;;;20.80;99151.00;;;;2062032;28;20241;-55
2021/11/04 02:44:35;;;;;;;26.60;23.80;;;;;20.80;99143.00;;;;2061868;28;20217;-54
2021/11/04 02:45:36;;;;;;;24.30;21.98;;;;;20.70;99153.00;;;;2072430;28;20308;-58
2021/11/04 02:46:36;;;;;;;24.93;22.43;;;;;20.70;99154.00;;;;2070909;28;20230;-55
2021/11/04 02:47:37;;;;;;;25.00;21.93;;;;;20.70;99162.00;;;;2070475;28;20226;-56
2021/11/04 02:48:38;;;;;;;24.07;21.67;;;;;20.80;99160.00;;;;2071202;28;20226;-56
2021/11/04 02:49:41;;;;;;;26.10;23.40;;;;;20.80;99164.00;;;;2077537;28;20214;-55
2021/11/04 02:50:43;;;;;;;23.55;21.20;;;;;20.70;99166.00;;;;2078057;28;20242;-54
2021/11/04 02:51:43;;;;;;;24.42;21.92;;;;;20.70;99166.00;;;;2063762;28;20706;-56
2021/11/04 02:52:44;;;;;;;23.73;21.33;;;;;20.70;99159.00;;;;2070250;28;20202;-54
2021/11/04 02:53:45;;;;;;;26.20;23.57;;;;;20.70;99168.00;;;;2070694;28;20236;-55
2021/11/04 02:54:59;;;;;;;24.55;22.05;;;;;20.70;99163.00;;;;2070999;28;20213;-55
2021/11/04 02:55:59;;;;;;;25.15;22.55;;;;;20.70;99162.00;;;;2072614;28;20679;-55
2021/11/04 02:57:00;;;;;;;25.53;22.80;;;;;20.70;99155.00;;;;2076923;28;20217;-55
2021/11/04 02:58:03;;;;;;;23.73;21.33;;;;;20.70;99168.00;;;;2078246;28;20559;-54
2021/11/04 02:59:04;;;;;;;24.83;22.27;;;;;20.70;99169.00;;;;2068702;28;20264;-55
2021/11/04 03:00:04;;;;;;;23.60;21.10;;;;;20.70;99171.00;;;;2070266;28;21014;-56
2021/11/04 03:01:05;;;;;;;25.00;22.40;;;;;20.70;99167.00;;;;2071492;28;20590;-55
2021/11/04 03:02:06;;;;;;;24.90;22.37;;;;;20.70;99170.00;;;;2078733;28;20463;-55
2021/11/04 03:03:06;;;;;;;25.10;22.60;;;;;20.70;99173.00;;;;2078978;28;20210;-56
2021/11/04 03:04:06;;;;;;;23.90;21.50;;;;;20.70;99168.00;;;;2074893;28;20703;-56
2021/11/04 03:05:07;;;;;;;23.70;21.20;;;;;20.70;99177.00;;;;2078864;28;20221;-55
2021/11/04 03:06:08;;;;;;;24.67;22.17;;;;;20.70;99180.00;;;;2078956;28;20623;-55
2021/11/04 03:07:08;;;;;;;24.17;21.80;;;;;20.70;99180.00;;;;2078608;28;20240;-55
2021/11/04 03:08:09;;;;;;;25.13;22.70;;;;;20.60;99190.00;;;;2070489;28;20582;-57
2021/11/04 03:09:09;;;;;;;24.30;21.83;;;;;20.60;99190.00;;;;2069738;28;20210;-55
2021/11/04 03:10:10;;;;;;;23.50;21.20;;;;;20.60;99191.00;;;;2070779;28;20237;-55
2021/11/04 03:11:10;;;;;;;24.33;21.80;;;;;20.70;99193.00;;;;2070663;28;20218;-55
2021/11/04 03:12:11;;;;;;;23.77;21.43;;;;;20.70;99198.00;;;;2070633;28;20213;-56
2021/11/04 03:13:11;;;;;;;24.30;21.90;;;;;20.70;99190.00;;;;2077268;28;20275;-56
2021/11/04 03:14:12;;;;;;;24.77;22.13;;;;;20.60;99186.00;;;;2078428;28;20222;-55
2021/11/04 03:15:16;;;;;;;24.23;21.70;;;;;20.70;99188.00;;;;2077913;28;20209;-55
2021/11/04 03:16:16;;;;;;;25.35;22.63;;;;;20.70;99195.00;;;;2065619;28;20210;-55
2021/11/04 03:17:17;;;;;;;24.17;21.67;;;;;20.70;99188.00;;;;2067772;28;20222;-57
2021/11/04 03:18:17;;;;;;;24.37;21.83;;;;;20.70;99186.00;;;;2065758;28;20211;-55
2021/11/04 03:19:18;;;;;;;24.60;22.00;;;;;20.70;99190.00;;;;2068908;28;21054;-55
2021/11/04 03:20:19;;;;;;;25.03;21.63;;;;;20.70;99196.00;;;;2062085;28;20269;-56
2021/11/04 03:21:19;;;;;;;24.47;21.90;;;;;20.70;99196.00;;;;2065372;28;20457;-55
2021/11/04 03:22:19;;;;;;;24.27;21.70;;;;;20.70;99196.00;;;;2078611;28;20309;-54
2021/11/04 03:23:20;;;;;;;25.73;23.10;;;;;20.60;99198.00;;;;2070714;28;20224;-55
2021/11/04 03:24:21;;;;;;;23.67;21.23;;;;;20.70;99196.00;;;;2069729;28;20210;-56
2021/11/04 03:25:22;;;;;;;24.70;22.10;;;;;20.60;99191.00;;;;2070162;28;20698;-55
2021/11/04 03:26:25;;;;;;;24.63;22.13;;;;;20.70;99190.00;;;;2072560;28;20222;-56
2021/11/04 03:27:25;;;;;;;25.23;22.70;;;;;20.70;99194.00;;;;2071521;28;20222;-55
2021/11/04 03:28:26;;;;;;;22.40;20.20;;;;;20.60;99196.00;;;;2062334;28;20318;-56
2021/11/04 03:29:27;;;;;;;24.60;22.00;;;;;20.60;99195.00;;;;2060389;28;20223;-56
2021/11/04 03:30:30;;;;;;;23.52;21.02;;;;;20.60;99183.00;;;;2069959;28;20435;-54
2021/11/04 03:31:32;;;;;;;26.10;23.30;;;;;20.60;99193.00;;;;2069879;28;20304;-55
2021/11/04 03:32:32;;;;;;;23.20;20.80;;;;;20.60;99192.00;;;;2062188;28;20293;-56
2021/11/04 03:33:33;;;;;;;24.53;21.93;;;;;20.60;99192.00;;;;2067993;28;20293;-54
2021/11/04 03:34:34;;;;;;;24.13;21.57;;;;;20.60;99190.00;;;;2063316;28;20676;-54
2021/11/04 03:35:36;;;;;;;23.55;21.10;;;;;20.70;99195.00;;;;2062137;28;20219;-54
2021/11/04 03:36:36;;;;;;;24.13;21.73;;;;;20.70;99191.00;;;;2070151;28;20301;-55
2021/11/04 03:37:38;;;;;;;22.73;20.43;;;;;20.70;99184.00;;;;2061201;28;20223;-54
2021/11/04 03:38:38;;;;;;;23.42;20.92;;;;;20.70;99183.00;;;;2046108;28;20220;-56
2021/11/04 03:39:39;;;;;;;21.97;19.87;;;;;20.60;99193.00;;;;2052746;28;20713;-54
2021/11/04 03:40:40;;;;;;;25.98;23.25;;;;;20.70;99177.00;;;;2075898;28;20220;-54
2021/11/04 03:41:41;;;;;;;22.83;20.53;;;;;20.70;99181.00;;;;2068396;28;20306;-56
2021/11/04 03:42:41;;;;;;;22.53;20.27;;;;;20.60;99178.00;;;;2065834;28;20564;-55
2021/11/04 03:43:42;;;;;;;23.20;20.90;;;;;20.60;99184.00;;;;2072669;28;20240;-56
2021/11/04 03:44:43;;;;;;;24.00;21.53;;;;;20.60;99180.00;;;;2063268;28;20246;-56
2021/11/04 03:45:43;;;;;;;23.73;21.30;;;;;20.60;99183.00;;;;2067242;28;20445;-55
2021/11/04 03:46:43;;;;;;;23.37;21.03;;;;;20.60;99180.00;;;;2063973;28;20295;-56
2021/11/04 03:47:44;;;;;;;23.97;21.47;;;;;20.60;99175.00;;;;2060804;28;20231;-54
2021/11/04 03:48:44;;;;;;;22.70;20.17;;;;;20.60;99178.00;;;;2073110;28;20214;-58
2021/11/04 03:49:46;;;;;;;23.50;21.10;;;;;20.70;99183.00;;;;2071288;28;20225;-56
2021/11/04 03:50:47;;;;;;;21.55;19.35;;;;;20.70;99173.00;;;;2074235;28;20717;-56
2021/11/04 03:51:50;;;;;;;21.93;19.73;;;;;20.60;99182.00;;;;2075673;28;20210;-56
2021/11/04 03:52:50;;;;;;;23.05;20.65;;;;;20.60;99178.00;;;;2067346;28;20203;-54
2021/11/04 03:53:51;;;;;;;21.10;19.03;;;;;20.70;99186.00;;;;2063702;28;20213;-53
2021/11/04 03:54:51;;;;;;;22.97;20.67;;;;;20.60;99186.00;;;;2063367;28;20270;-53
2021/11/04 03:55:52;;;;;;;22.83;20.53;;;;;20.60;99182.00;;;;2071200;28;20233;-53
2021/11/04 03:56:53;;;;;;;21.60;19.30;;;;;20.60;99188.00;;;;2069042;28;20202;-53
2021/11/04 03:57:53;;;;;;;21.27;18.98;;;;;20.60;99190.00;;;;2079592;28;20762;-52
2021/11/04 03:58:54;;;;;;;22.60;20.30;;;;;20.60;99188.00;;;;2079147;28;20209;-53
2021/11/04 03:59:54;;;;;;;22.30;19.93;;;;;20.60;99189.00;;;;2071108;28;20723;-53
2021/11/04 04:00:55;;;;;;;21.07;18.93;;;;;20.60;99174.00;;;;2071295;28;20349;-52
2021/11/04 04:01:56;;;;;;;22.33;20.10;;;;;20.60;99186.00;;;;2072634;28;20658;-53
2021/11/04 04:02:56;;;;;;;20.13;18.23;;;;;20.60;99194.00;;;;2063256;28;20207;-53
2021/11/04 04:03:56;;;;;;;21.30;19.00;;;;;20.60;99182.00;;;;2067081;28;20292;-53
2021/11/04 04:04:57;;;;;;;21.50;19.40;;;;;20.60;99180.00;;;;2071979;28;20218;-52
2021/11/04 04:06:02;;;;;;;21.90;19.57;;;;;20.60;99185.00;;;;2071633;28;20657;-52
2021/11/04 04:07:02;;;;;;;21.92;19.70;;;;;20.60;99180.00;;;;2076240;28;20221;-52
2021/11/04 04:08:03;;;;;;;22.40;20.20;;;;;20.60;99186.00;;;;2079701;28;20701;-52
2021/11/04 04:09:04;;;;;;;21.73;19.60;;;;;20.60;99189.00;;;;2070211;28;20210;-53
2021/11/04 04:10:05;;;;;;;21.95;19.42;;;;;20.60;99190.00;;;;2071428;28;20224;-53
2021/11/04 04:11:05;;;;;;;21.80;19.60;;;;;20.60;99189.00;;;;2077968;28;20213;-53
2021/11/04 04:12:06;;;;;;;20.87;18.67;;;;;20.60;99188.00;;;;2071806;28;21123;-53
2021/11/04 04:13:06;;;;;;;21.87;19.63;;;;;20.60;99193.00;;;;2071983;28;20217;-53
2021/11/04 04:14:07;;;;;;;22.90;20.50;;;;;20.60;99185.00;;;;2071526;28;20464;-51
2021/11/04 04:15:07;;;;;;;20.47;18.40;;;;;20.60;99186.00;;;;2070893;28;20210;-53
2021/11/04 04:16:07;;;;;;;21.33;18.67;;;;;20.60;99194.00;;;;2073286;28;20214;-53
2021/11/04 04:17:08;;;;;;;21.40;19.20;;;;;20.50;99195.00;;;;2069657;28;20222;-53
2021/11/04 04:18:08;;;;;;;19.87;17.83;;;;;20.60;99194.00;;;;2074690;28;20202;-53
2021/11/04 04:19:09;;;;;;;20.97;18.80;;;;;20.60;99198.00;;;;2071628;28;20222;-53
2021/11/04 04:20:09;;;;;;;19.93;17.83;;;;;20.50;99200.00;;;;2079492;28;20966;-52
2021/11/04 04:21:09;;;;;;;20.93;18.73;;;;;20.50;99207.00;;;;2079214;28;20232;-51
2021/11/04 04:22:10;;;;;;;20.77;18.67;;;;;20.60;99202.00;;;;2069793;28;20236;-53
2021/11/04 04:23:10;;;;;;;20.53;18.47;;;;;20.60;99218.00;;;;2079945;28;20601;-53
2021/11/04 04:24:11;;;;;;;21.30;19.00;;;;;20.60;99211.00;;;;2076787;28;20225;-52
2021/11/04 04:25:11;;;;;;;21.50;19.20;;;;;20.50;99215.00;;;;2078735;28;20222;-52
2021/11/04 04:26:11;;;;;;;20.27;18.17;;;;;20.60;99218.00;;;;2071832;28;20577;-52
2021/11/04 04:27:12;;;;;;;21.53;19.33;;;;;20.60;99215.00;;;;2073765;28;20307;-52
2021/11/04 04:28:13;;;;;;;21.75;19.15;;;;;20.50;99224.00;;;;2076202;28;20221;-53
2021/11/04 04:29:14;;;;;;;20.60;18.40;;;;;20.50;99216.00;;;;2078636;28;20593;-52
2021/11/04 04:30:14;;;;;;;20.97;18.10;;;;;20.60;99220.00;;;;2079910;28;20228;-52
2021/11/04 04:31:15;;;;;;;21.23;19.00;;;;;20.50;99221.00;;;;2077121;28;20574;-53
2021/11/04 04:32:16;;;;;;;22.00;19.40;;;;;20.50;99214.00;;;;2069611;28;20567;-53
2021/11/04 04:33:16;;;;;;;21.40;19.17;;;;;20.50;99226.00;;;;2071936;28;20464;-53
2021/11/04 04:34:16;;;;;;;20.57;18.37;;;;;20.50;99219.00;;;;2075801;28;20271;-52
2021/11/04 04:35:17;;;;;;;21.27;19.07;;;;;20.50;99223.00;;;;2075073;28;20229;-53
2021/11/04 04:36:17;;;;;;;19.80;17.70;;;;;20.50;99233.00;;;;2072116;28;20237;-52
2021/11/04 04:37:18;;;;;;;19.60;17.50;;;;;20.50;99229.00;;;;2071565;28;20226;-52
2021/11/04 04:38:18;;;;;;;20.73;18.63;;;;;20.50;99234.00;;;;2075005;28;20221;-53
2021/11/04 04:39:19;;;;;;;20.17;17.97;;;;;20.50;99229.00;;;;2076632;28;20251;-53
2021/11/04 04:40:19;;;;;;;19.80;17.43;;;;;20.50;99238.00;;;;2079426;28;20752;-53
2021/11/04 04:41:20;;;;;;;20.40;18.20;;;;;20.50;99231.00;;;;2079998;28;20221;-53
2021/11/04 04:42:20;;;;;;;21.40;19.10;;;;;20.50;99229.00;;;;2079662;28;20218;-52
2021/11/04 04:43:21;;;;;;;20.03;17.93;;;;;20.50;99231.00;;;;2079734;28;20448;-53
2021/11/04 04:44:21;;;;;;;21.70;19.23;;;;;20.50;99232.00;;;;2079306;28;20983;-53
2021/11/04 04:45:21;;;;;;;20.60;18.40;;;;;20.50;99227.00;;;;2073606;28;20217;-53
2021/11/04 04:46:22;;;;;;;21.60;18.13;;;;;20.50;99228.00;;;;2072640;28;20354;-52
2021/11/04 04:47:23;;;;;;;20.33;18.10;;;;;20.50;99241.00;;;;2071418;28;20264;-52
2021/11/04 04:48:23;;;;;;;19.93;17.83;;;;;20.50;99234.00;;;;2075732;28;20252;-53
2021/11/04 04:49:24;;;;;;;18.93;16.97;;;;;20.50;99231.00;;;;2069017;28;20293;-52
2021/11/04 04:50:24;;;;;;;19.70;17.60;;;;;20.50;99238.00;;;;2071548;28;20286;-52
2021/11/04 04:51:24;;;;;;;19.70;17.53;;;;;20.50;99240.00;;;;2072061;28;20214;-52
2021/11/04 04:52:26;;;;;;;19.30;17.30;;;;;20.50;99240.00;;;;2071535;28;21003;-53
2021/11/04 04:53:26;;;;;;;20.20;18.00;;;;;20.50;99240.00;;;;2070139;28;20218;-53
2021/11/04 04:54:26;;;;;;;19.77;17.27;;;;;20.50;99241.00;;;;2070719;28;20821;-54
2021/11/04 04:55:27;;;;;;;21.27;19.07;;;;;20.50;99245.00;;;;2070060;28;20595;-55
2021/11/04 04:56:27;;;;;;;20.43;18.37;;;;;20.50;99247.00;;;;2071225;28;20213;-53
2021/11/04 04:57:27;;;;;;;21.03;18.10;;;;;20.50;99249.00;;;;2071826;28;20215;-53
2021/11/04 04:58:28;;;;;;;20.07;17.97;;;;;20.50;99253.00;;;;2071728;28;20215;-52